Burlington, CO

8:37 PM MDT on August 22, 2014 (GMT -0600)
Kit Carson County | Change Station
CLOSE
Current Station
Airport
Location: Burlington,
Elevation: 4216 ft
Nearby Weather Stations
Active Advisory: Flash Flood Warning Active Notice: Local Storm Report

Elev 4216 ft 39.24 °N, 102.28 °W | Updated 34 minutes ago

Light Rain
Light Rain
66 °F
Feels Like 66 °F
N
5
Wind Variable Wind from West

Today
High -- | Low -- °F
--% Chance of Precip.
Yesterday
High -- | Low -- °F
Precip. -- in
6:08 AM 7:34 PM
Waning Crescent, 6% visible
Pressure 30.03 in
Visibility 8.0 miles
Clouds Few 7500 ft
Overcast 11000 ft
Dew Point 63 °F
Humidity 90%
Rainfall 0.33 in
Snow Depth Not available.
UV 0 out of 12
Pollen 9.50 out of 12
Air Quality Not available.
Flu Activity Not available.
SPECI KITR 230203Z AUTO 28004KT 8SM -RA FEW075 OVC110 19/17 A3003 RMK AO2 LTG DSNT SE AND NW P0001 T01890172

More Conditions Fewer Conditions

Pressure 30.03 in
Visibility 8.0 miles
Clouds Few 7500 ft
Overcast 11000 ft
Dew Point 63 °F
Humidity 90%
Rainfall 0.33 in
Snow Depth Not available.
UV 0 out of 12
Pollen 9.50 out of 12
Air Quality Not available.
Flu Activity Not available.
SPECI KITR 230203Z AUTO 28004KT 8SM -RA FEW075 OVC110 19/17 A3003 RMK AO2 LTG DSNT SE AND NW P0001 T01890172

More Conditions Fewer Conditions

10-Day Weather Forecast

Almanac

Astronomy

Aug. 22, 2014 Rise Set
Actual Time 6:08 AM MDT 7:34 PM MDT
Civil Twilight 5:40 AM MDT 8:02 PM MDT
Nautical Twilight 5:06 AM MDT 8:36 PM MDT
Astronomical Twilight 4:30 AM MDT 9:11 PM MDT
Moon 3:33 AM MDT (8/22) 5:44 PM MDT (8/22)
Length of Visible Light 14h 22m
Length of Day
13h 26m
Tomorrow will be 2m 22s shorter.
Waning Crescent, 6% of the Moon is Illuminated
Today
Waning Crescent
Aug 25
New
Sep 2
First Quarter
Sep 8
Full
Sep 15
Last Quarter

Today's Extremes

State Highs State Lows

Community

WunderPhotos

Upload Photos

1,746,346 photos uploaded!

WunderBlogs® & News

Nearby

Snow Depth

Station Depth Elevation
Glen Cove 0 in 11460 ft
Echo Lake 0 in 10600 ft
Niwot 0 in 9910 ft
University Camp 0 in 10300 ft
Copeland Lake 0 in 8600 ft

Earthquake Activity

City Distance Mag. Time & Date
No recent earthquake activity has been reported nearby.
Minimum magnitude displayed is 2.5.

Coastal Water Temperatures

Place Temperature
No Stations Reporting

Nearby Weather Stations